Arzew, Algeria

8:51 PM CET on October 25, 2014 (GMT +0100)
Es Senia | Change Station
CLOSE
Current Station
Airport
Location: Oran,
Elevation: 295 ft
Nearby Weather Stations

Elev 295 ft 35.63 °N, 0.60 °W | Updated 21 minutes ago

Clear
Clear
66 °F
Feels Like 66 °F
N
5
Wind Variable Wind from NE

Today
High -- | Low -- °F
--% Chance of Precip.
Yesterday
High -- | Low -- °F
Precip. -- in
7:16 AM 6:13 PM
Waxing Crescent, 4% visible
Pressure 30.06 in
Visibility -9999.0 miles
Clouds
Dew Point 63 °F
Humidity 88%
Rainfall 0.00 in
Snow Depth Not available.
UV Not available.
Pollen Not available.
Air Quality Not available.
Flu Activity Not available.
METAR DAOO 251930Z 05004KT CAVOK 19/17 Q1018

More Conditions Fewer Conditions

Pressure 30.06 in
Visibility -9999.0 miles
Clouds
Dew Point 63 °F
Humidity 88%
Rainfall 0.00 in
Snow Depth Not available.
UV Not available.
Pollen Not available.
Air Quality Not available.
Flu Activity Not available.
METAR DAOO 251930Z 05004KT CAVOK 19/17 Q1018

More Conditions Fewer Conditions

10-Day Weather Forecast

Almanac

Astronomy

Oct. 25, 2014 Rise Set
Actual Time 7:16 AM CET 6:13 PM CET
Civil Twilight 6:50 AM CET 6:39 PM CET
Nautical Twilight 6:20 AM CET 7:09 PM CET
Astronomical Twilight 5:50 AM CET 7:39 PM CET
Moon 8:38 AM CET 7:27 PM CET
Length of Visible Light 11h 49m
Length of Day
10h 56m
Tomorrow will be 2m 5s shorter.
Waxing Crescent, 4% of the Moon is Illuminated
Today
Waxing Crescent
Oct 30
First Quarter
Nov 6
Full
Nov 14
Last Quarter
Nov 22
New

Today's Extremes

Country Highs Country Lows

Community

WunderPhotos

Upload Photos

1,764,972 photos uploaded!

Nearby

Snow Depth

Not available.

Earthquake Activity

City Distance Mag. Time & Date
No recent earthquake activity has been reported nearby.
Minimum magnitude displayed is 2.5.

Coastal Water Temperatures

Place Temperature
No Stations Reporting

Nearby Weather Stations